Time;durP1;ratioP1;P1;durP2;ratioP2;P2;SDS_P1;SDS_P2;PMS_P1;PMS_P2;Temp;Humidity;BMP_temperature;BMP_pressure;BME280_temperature;BME280_humidity;BME280_pressure;Samples;Min_cycle;Max_cycle;Signal;HPM_P1;HPM_P2
2022/04/28 00:01:54;;;;;;;;;42.00;34.50;;;;;12.33;57.71;102258.38;5032401;28;49784;-64
2022/04/28 00:04:20;;;;;;;;;35.75;33.75;;;;;12.37;57.56;102262.94;5033166;28;49593;-64
2022/04/28 00:06:46;;;;;;;;;41.75;36.00;;;;;12.27;57.57;102248.53;5031652;28;51595;-64
2022/04/28 00:09:11;;;;;;;;;40.75;34.25;;;;;12.13;58.20;102233.03;5031794;28;49742;-64
2022/04/28 00:11:37;;;;;;;;;37.75;35.50;;;;;12.14;57.92;102238.34;5032504;28;49749;-64
2022/04/28 00:14:02;;;;;;;;;42.75;36.75;;;;;12.09;58.03;102239.03;5032559;28;49611;-64
2022/04/28 00:16:28;;;;;;;;;40.50;35.50;;;;;12.19;58.08;102263.13;5031937;28;50500;-65
2022/04/28 00:18:54;;;;;;;;;39.50;34.75;;;;;12.09;58.40;102252.19;5031726;28;50008;-63
2022/04/28 00:21:20;;;;;;;;;37.50;35.25;;;;;12.16;58.68;102268.28;5032059;28;49936;-65
2022/04/28 00:23:46;;;;;;;;;34.00;33.25;;;;;12.00;58.77;102252.75;5011006;28;49884;-64
2022/04/28 00:26:12;;;;;;;;;41.00;37.25;;;;;12.06;58.89;102252.06;5029676;28;50781;-65
2022/04/28 00:28:38;;;;;;;;;34.25;32.75;;;;;11.97;58.99;102235.09;5031867;28;49831;-64
2022/04/28 00:31:03;;;;;;;;;38.00;35.00;;;;;11.95;59.02;102243.75;5031132;28;50097;-64
2022/04/28 00:33:29;;;;;;;;;35.75;33.25;;;;;11.90;59.05;102230.44;5031966;28;49869;-64
2022/04/28 00:35:55;;;;;;;;;34.50;33.75;;;;;11.84;59.25;102239.81;5031494;28;50947;-64
2022/04/28 00:38:21;;;;;;;;;37.75;34.75;;;;;11.88;59.51;102250.53;5032028;28;49942;-64
2022/04/28 00:40:47;;;;;;;;;36.50;32.25;;;;;11.87;59.60;102251.38;5031358;28;50207;-64
2022/04/28 00:43:26;;;;;;;;;41.00;36.00;;;;;11.67;60.04;102226.84;5030055;28;50383;-64
2022/04/28 00:45:51;;;;;;;;;40.50;36.25;;;;;11.73;59.46;102236.72;5031603;28;50540;-65
2022/04/28 00:51:04;;;;;;;;;35.50;34.00;;;;;11.79;60.02;102251.88;5031550;28;49702;-64
2022/04/28 00:53:32;;;;;;;;;40.00;35.25;;;;;11.74;60.02;102259.56;5031440;28;50477;-64
2022/04/28 00:55:59;;;;;;;;;38.25;35.00;;;;;11.67;60.53;102258.41;5031371;28;50043;-63
2022/04/28 00:58:24;;;;;;;;;34.75;33.25;;;;;11.63;60.91;102243.34;5031908;28;49875;-64
2022/04/28 01:00:50;;;;;;;;;38.25;33.25;;;;;11.50;60.77;102235.81;5031575;28;49780;-64
2022/04/28 01:03:17;;;;;;;;;33.00;29.00;;;;;11.50;60.97;102237.56;5031609;28;49671;-64
2022/04/28 01:05:42;;;;;;;;;29.75;28.50;;;;;11.55;60.93;102257.94;5031622;28;50755;-64
2022/04/28 01:08:08;;;;;;;;;35.00;32.00;;;;;11.39;61.44;102230.13;5030718;28;50037;-65
2022/04/28 01:10:37;;;;;;;;;36.00;33.75;;;;;11.35;61.71;102237.81;5031443;28;49909;-64
2022/04/28 01:13:04;;;;;;;;;37.25;31.50;;;;;11.47;61.38;102247.09;5031539;28;49941;-64
2022/04/28 01:15:29;;;;;;;;;34.00;33.00;;;;;11.31;61.36;102217.50;5031112;28;49793;-64
2022/04/28 01:17:55;;;;;;;;;36.75;34.00;;;;;11.41;61.40;102235.44;5013253;28;49811;-64
2022/04/28 01:20:21;;;;;;;;;26.25;22.50;;;;;11.36;61.46;102235.25;5030956;28;49604;-65
2022/04/28 01:22:46;;;;;;;;;32.25;32.00;;;;;11.30;62.03;102235.00;5031695;28;49721;-64
2022/04/28 01:25:13;;;;;;;;;37.50;31.00;;;;;11.42;61.63;102246.03;5031071;28;50531;-64
2022/04/28 01:27:39;;;;;;;;;31.50;29.00;;;;;11.31;62.10;102244.69;5031424;28;49718;-64
2022/04/28 01:30:13;;;;;;;;;41.50;35.25;;;;;11.30;62.34;102242.91;5030637;28;49950;-64
2022/04/28 01:32:39;;;;;;;;;34.75;34.50;;;;;11.14;62.82;102229.94;5013228;28;49989;-64
2022/04/28 01:35:05;;;;;;;;;29.25;27.75;;;;;11.08;62.76;102219.16;5030672;28;50720;-64
2022/04/28 01:37:30;;;;;;;;;33.75;28.75;;;;;11.18;62.74;102239.75;5031095;28;49770;-64
2022/04/28 01:39:56;;;;;;;;;34.75;31.50;;;;;11.12;63.05;102224.63;5030522;28;49781;-64
2022/04/28 01:42:25;;;;;;;;;37.25;31.50;;;;;11.14;62.99;102222.94;5031352;28;49565;-65
2022/04/28 01:44:51;;;;;;;;;30.00;29.00;;;;;11.08;62.82;102221.78;5030482;28;50421;-64
2022/04/28 01:47:17;;;;;;;;;39.75;34.50;;;;;11.10;63.30;102235.91;5030956;28;50013;-64
2022/04/28 01:49:43;;;;;;;;;33.75;28.25;;;;;11.10;63.32;102238.53;5030567;28;49753;-67
2022/04/28 01:54:59;;;;;;;;;31.25;27.75;;;;;10.90;63.68;102227.16;5030159;28;49796;-64
2022/04/28 01:57:27;;;;;;;;;35.25;30.75;;;;;11.03;63.52;102244.38;5030901;28;49798;-64
2022/04/28 01:59:53;;;;;;;;;38.00;30.50;;;;;10.92;63.76;102232.50;5030723;28;49719;-65
2022/04/28 02:02:18;;;;;;;;;30.00;26.00;;;;;10.86;64.15;102228.78;5030598;28;50105;-64
2022/04/28 02:04:44;;;;;;;;;32.25;28.75;;;;;10.86;63.69;102234.03;5030804;28;50597;-64
2022/04/28 02:07:13;;;;;;;;;34.50;30.25;;;;;10.89;63.85;102244.66;5030466;28;49635;-64
2022/04/28 02:09:42;;;;;;;;;33.75;31.75;;;;;10.78;64.12;102230.16;5029715;28;50029;-64
2022/04/28 02:12:09;;;;;;;;;30.50;28.25;;;;;10.87;63.86;102251.59;5027562;28;50012;-65
2022/04/28 02:14:34;;;;;;;;;35.25;30.25;;;;;10.78;64.21;102240.66;5030404;28;50000;-65
2022/04/28 02:17:01;;;;;;;;;35.25;34.25;;;;;10.76;64.48;102237.09;5030619;28;49690;-65
2022/04/28 02:19:26;;;;;;;;;30.50;24.75;;;;;10.77;64.30;102273.03;5029533;28;49818;-64
2022/04/28 02:21:52;;;;;;;;;37.00;33.50;;;;;10.63;64.74;102232.16;5030689;28;49929;-64
2022/04/28 02:24:18;;;;;;;;;31.00;26.25;;;;;10.70;64.48;102246.41;5030005;28;50467;-65
2022/04/28 02:26:43;;;;;;;;;32.00;32.00;;;;;10.73;64.87;102254.47;5030341;28;49740;-64
2022/04/28 02:29:09;;;;;;;;;25.00;24.75;;;;;10.72;64.64;102255.28;5030166;28;49778;-66
2022/04/28 02:31:34;;;;;;;;;32.75;29.50;;;;;10.57;65.18;102232.75;5028446;28;50046;-65
2022/04/28 02:34:00;;;;;;;;;36.75;31.75;;;;;10.60;65.21;102255.63;5030357;28;50822;-64
2022/04/28 02:36:25;;;;;;;;;28.25;28.00;;;;;10.51;65.86;102242.06;5030330;28;49703;-65
2022/04/28 02:38:52;;;;;;;;;45.50;37.50;;;;;10.62;65.50;102263.59;5029687;28;49818;-64
2022/04/28 02:41:21;;;;;;;;;33.25;29.25;;;;;10.62;65.13;102268.84;5030121;28;50075;-65
2022/04/28 02:43:50;;;;;;;;;42.75;33.50;;;;;10.57;65.26;102261.66;5029502;28;50823;-64
2022/04/28 02:46:16;;;;;;;;;39.75;37.50;;;;;10.53;65.95;102272.84;5011906;28;50262;-64
2022/04/28 02:48:42;;;;;;;;;34.00;30.75;;;;;10.45;66.26;102255.84;5030089;28;50178;-64
2022/04/28 02:51:07;;;;;;;;;33.75;32.50;;;;;10.51;65.97;102268.34;5029929;28;49927;-65
2022/04/28 02:53:34;;;;;;;;;35.00;29.25;;;;;10.41;66.26;102250.38;5029307;28;50868;-65
2022/04/28 02:56:00;;;;;;;;;38.75;33.50;;;;;10.46;65.89;102262.91;5029740;28;49937;-64
2022/04/28 02:58:25;;;;;;;;;33.50;29.75;;;;;10.39;66.29;102268.69;5029874;28;49849;-64
2022/04/28 03:00:51;;;;;;;;;35.50;31.00;;;;;10.38;66.42;102269.53;5030056;28;49742;-64
2022/04/28 03:03:16;;;;;;;;;38.00;33.75;;;;;10.32;66.95;102264.88;5028849;28;50414;-64
2022/04/28 03:11:10;;;;;;;;;39.50;33.50;;;;;10.30;66.77;102269.16;5029652;28;50114;-64
2022/04/28 03:13:37;;;;;;;;;38.00;34.75;;;;;10.25;67.01;102261.94;5029129;28;49678;-64
2022/04/28 03:16:02;;;;;;;;;32.50;31.25;;;;;10.30;66.94;102273.50;5011317;28;49697;-64
2022/04/28 03:18:28;;;;;;;;;30.00;27.75;;;;;10.34;66.73;102280.72;5029254;28;49837;-64
2022/04/28 03:20:58;;;;;;;;;31.00;28.00;;;;;10.30;67.00;102290.16;5029334;28;49801;-64
2022/04/28 03:23:23;;;;;;;;;33.50;32.25;;;;;10.21;67.19;102281.81;5028713;28;50623;-64
2022/04/28 03:25:52;;;;;;;;;32.00;32.00;;;;;10.11;67.20;102253.38;5011616;28;49868;-63
2022/04/28 03:28:19;;;;;;;;;34.50;33.00;;;;;10.17;67.45;102263.25;5029536;28;50358;-64
2022/04/28 03:30:46;;;;;;;;;41.25;38.00;;;;;10.25;67.57;102288.19;5030174;28;49779;-64
2022/04/28 03:33:12;;;;;;;;;38.25;35.50;;;;;10.18;66.96;102275.56;5032703;28;49854;-64
2022/04/28 03:35:39;;;;;;;;;34.75;30.00;;;;;10.10;67.83;102275.19;5032491;28;49923;-64
2022/04/28 03:38:05;;;;;;;;;30.50;30.00;;;;;10.22;67.87;102298.50;5032356;28;49820;-64
2022/04/28 03:40:30;;;;;;;;;39.50;37.50;;;;;10.15;68.25;102301.66;5032979;28;50078;-64
2022/04/28 03:42:57;;;;;;;;;36.50;31.75;;;;;9.55;68.77;102196.50;5032313;28;50577;-64
2022/04/28 03:45:25;;;;;;;;;35.25;33.25;;;;;10.09;67.92;102289.13;5032880;28;49655;-64
2022/04/28 03:47:51;;;;;;;;;41.25;33.25;;;;;9.94;68.73;102263.09;5032577;28;50141;-64
2022/04/28 03:50:17;;;;;;;;;35.00;33.00;;;;;10.06;68.13;102289.00;5032716;28;49848;-65
2022/04/28 03:52:42;;;;;;;;;36.50;34.75;;;;;10.01;68.34;102280.00;5031952;28;49887;-64
2022/04/28 03:55:09;;;;;;;;;33.75;31.75;;;;;9.95;68.78;102270.13;5032523;28;51079;-64
2022/04/28 03:57:36;;;;;;;;;32.75;29.75;;;;;10.04;69.07;102290.66;5015080;28;49759;-64
2022/04/28 04:00:03;;;;;;;;;38.75;34.00;;;;;9.86;68.81;102256.59;5032873;28;49568;-64
2022/04/28 04:02:29;;;;;;;;;41.75;37.25;;;;;9.94;69.16;102285.78;5031890;28;50029;-64
2022/04/28 04:04:55;;;;;;;;;36.75;35.00;;;;;9.95;69.00;102296.38;5032151;28;50269;-64
2022/04/28 04:07:20;;;;;;;;;38.00;34.75;;;;;9.89;69.86;102289.91;5032711;28;49802;-64
2022/04/28 04:09:46;;;;;;;;;41.00;35.75;;;;;9.74;69.07;102267.34;5032017;28;49951;-64
2022/04/28 04:12:11;;;;;;;;;41.75;37.75;;;;;9.84;69.12;102289.69;5032064;28;49719;-64
2022/04/28 04:14:37;;;;;;;;;33.25;32.00;;;;;9.86;69.54;102288.06;5031859;28;50288;-65
2022/04/28 04:17:03;;;;;;;;;34.50;32.75;;;;;9.97;69.90;102310.44;5032733;28;49820;-64
2022/04/28 04:19:28;;;;;;;;;32.75;31.75;;;;;9.90;69.83;102294.34;5013771;28;49566;-64
2022/04/28 04:21:54;;;;;;;;;15.00;8.00;;;;;9.87;69.47;102284.59;5014213;28;51570;-64
2022/04/28 04:24:19;;;;;;;;;39.00;35.25;;;;;9.82;69.87;102279.94;5032006;28;49786;-63
2022/04/28 04:26:45;;;;;;;;;46.75;38.00;;;;;9.85;69.63;102288.88;5032181;28;49824;-64
2022/04/28 04:29:12;;;;;;;;;34.50;33.75;;;;;9.96;69.86;102308.66;5011776;28;49857;-64
2022/04/28 04:34:23;;;;;;;;;40.75;36.00;;;;;9.87;70.11;102294.19;5032071;28;50153;-64
2022/04/28 04:36:48;;;;;;;;;38.25;36.75;;;;;9.82;69.84;102290.44;5034623;28;49827;-64
2022/04/28 04:39:14;;;;;;;;;36.25;30.75;;;;;9.87;70.03;102309.94;5038955;28;49523;-63
2022/04/28 04:41:40;;;;;;;;;39.00;35.25;;;;;10.02;70.31;102323.78;5025765;28;51498;-64
2022/04/28 04:44:12;;;;;;;;;44.50;37.25;;;;;9.88;70.05;102302.13;5032371;28;49944;-72
2022/04/28 04:46:38;;;;;;;;;37.00;34.25;;;;;9.82;70.12;102295.69;5031931;28;49701;-73
2022/04/28 04:49:04;;;;;;;;;49.00;38.00;;;;;9.93;70.20;102312.84;5031783;28;49753;-65
2022/04/28 04:51:29;;;;;;;;;50.75;38.25;;;;;9.89;70.36;102310.91;5032752;28;50838;-66
2022/04/28 04:53:55;;;;;;;;;40.75;35.50;;;;;9.96;70.19;102316.53;5031447;28;49769;-65
2022/04/28 04:56:20;;;;;;;;;44.75;35.00;;;;;10.03;70.55;102322.94;5031748;28;49999;-64
2022/04/28 04:58:45;;;;;;;;;42.50;39.00;;;;;9.95;70.14;102298.09;5035924;28;49870;-68
2022/04/28 05:01:11;;;;;;;;;45.75;36.25;;;;;10.01;70.68;102306.25;5031126;28;52839;-64
2022/04/28 05:03:36;;;;;;;;;48.50;39.00;;;;;10.06;69.80;102317.88;5031441;28;49806;-65
2022/04/28 05:06:02;;;;;;;;;41.75;37.25;;;;;10.07;69.58;102322.28;5031644;28;49835;-66
2022/04/28 05:08:27;;;;;;;;;41.25;37.25;;;;;10.17;69.92;102335.00;5031237;28;49657;-64
2022/04/28 05:10:52;;;;;;;;;47.50;42.00;;;;;10.12;70.42;102323.38;5013501;28;50374;-64
2022/04/28 05:13:18;;;;;;;;;45.25;38.50;;;;;10.14;70.09;102329.63;5030624;28;49621;-64
2022/04/28 05:15:47;;;;;;;;;43.25;38.00;;;;;10.13;69.49;102327.81;5031208;28;49903;-63
2022/04/28 05:18:12;;;;;;;;;50.75;41.00;;;;;10.14;70.30;102329.63;5031728;28;49624;-62
2022/04/28 05:20:37;;;;;;;;;46.50;38.00;;;;;10.26;69.56;102345.09;5029865;28;51624;-63
2022/04/28 05:23:03;;;;;;;;;42.50;37.75;;;;;10.16;70.02;102341.09;5030998;28;49776;-63
2022/04/28 05:25:29;;;;;;;;;46.75;38.75;;;;;9.68;69.47;102243.50;5030913;28;50020;-63
2022/04/28 05:27:54;;;;;;;;;50.75;42.75;;;;;9.85;69.87;102273.16;5031342;28;49812;-62
2022/04/28 05:30:20;;;;;;;;;46.75;38.50;;;;;10.22;69.17;102344.03;5030955;28;50914;-63
2022/04/28 05:32:45;;;;;;;;;47.75;39.00;;;;;10.30;69.13;102363.66;5030829;28;49692;-63
2022/04/28 05:35:11;;;;;;;;;50.50;41.50;;;;;10.34;69.97;102369.06;5031224;28;50035;-63
2022/04/28 05:37:37;;;;;;;;;43.75;36.75;;;;;10.42;69.14;102376.50;5031279;28;50155;-62
2022/04/28 05:40:04;;;;;;;;;51.75;39.50;;;;;10.40;68.87;102364.09;5030992;28;49717;-62
2022/04/28 05:47:59;;;;;;;;;43.25;37.75;;;;;10.49;68.68;102372.41;5029643;28;50114;-65
2022/04/28 05:50:26;;;;;;;;;47.00;39.75;;;;;10.44;68.54;102361.69;5031081;28;50234;-62
2022/04/28 05:52:51;;;;;;;;;52.25;44.25;;;;;10.49;69.04;102370.69;5030642;28;49737;-62
2022/04/28 05:55:16;;;;;;;;;44.75;37.00;;;;;10.47;68.87;102355.69;5030632;28;49618;-62
2022/04/28 05:57:43;;;;;;;;;52.00;41.75;;;;;10.57;68.56;102371.03;5030853;28;50562;-63
2022/04/28 06:00:09;;;;;;;;;50.00;41.00;;;;;10.64;68.54;102390.63;5008579;28;50703;-63
2022/04/28 06:02:35;;;;;;;;;38.25;36.00;;;;;10.65;68.96;102380.19;5029404;28;49888;-62
2022/04/28 06:05:01;;;;;;;;;42.00;38.50;;;;;10.68;67.99;102384.66;5030641;28;49784;-63
2022/04/28 06:07:26;;;;;;;;;42.00;37.00;;;;;10.70;67.71;102383.91;5030665;28;49943;-63
2022/04/28 06:09:52;;;;;;;;;48.00;39.50;;;;;10.73;67.73;102391.94;5030125;28;49894;-62
2022/04/28 06:12:17;;;;;;;;;40.25;35.25;;;;;10.64;67.58;102372.22;5011947;28;49763;-63
2022/04/28 06:14:43;;;;;;;;;47.00;38.50;;;;;10.80;67.62;102399.25;5009035;28;50342;-62
2022/04/28 06:17:09;;;;;;;;;50.00;40.75;;;;;10.77;67.63;102395.59;5027325;28;49278;-63
2022/04/28 06:19:35;;;;;;;;;53.75;45.00;;;;;10.79;67.51;102389.56;5030044;28;50941;-65
2022/04/28 06:22:00;;;;;;;;;47.50;41.00;;;;;10.95;67.61;102399.06;5030573;28;49708;-63
2022/04/28 06:24:25;;;;;;;;;50.75;39.75;;;;;10.72;67.67;102362.97;5029644;28;49740;-64
2022/04/28 06:26:51;;;;;;;;;54.25;41.75;;;;;11.00;67.39;102410.69;5030304;28;49947;-65
2022/04/28 06:29:17;;;;;;;;;47.75;37.00;;;;;11.04;67.22;102425.75;5030166;28;49717;-63
2022/04/28 06:31:42;;;;;;;;;32.50;31.75;;;;;11.09;67.15;102415.44;5030653;28;49645;-61
2022/04/28 06:34:07;;;;;;;;;44.50;38.00;;;;;11.07;66.76;102402.22;5022147;28;49745;-60
2022/04/28 06:36:34;;;;;;;;;47.00;38.75;;;;;11.21;66.56;102421.25;5030251;28;49685;-61
2022/04/28 06:39:02;;;;;;;;;50.75;41.75;;;;;11.23;67.10;102416.97;5029765;28;50749;-61
2022/04/28 06:41:27;;;;;;;;;49.75;40.00;;;;;11.18;65.99;102414.13;5029831;28;49845;-62
2022/04/28 06:43:55;;;;;;;;;48.50;41.25;;;;;11.26;66.23;102422.34;5029154;28;50051;-61
2022/04/28 06:46:20;;;;;;;;;33.25;28.25;;;;;11.25;66.47;102415.31;5024083;28;49664;-63
2022/04/28 06:48:47;;;;;;;;;52.50;42.50;;;;;11.26;66.28;102419.72;5029831;28;50545;-69
2022/04/28 06:51:12;;;;;;;;;50.25;41.50;;;;;11.17;65.92;102409.69;5030074;28;49706;-62
2022/04/28 06:53:38;;;;;;;;;49.75;42.00;;;;;11.22;65.89;102414.28;5029846;28;49759;-62
2022/04/28 06:56:04;;;;;;;;;40.75;34.50;;;;;11.26;65.12;102411.84;5027712;28;49960;-62
2022/04/28 06:58:30;;;;;;;;;51.25;42.25;;;;;11.38;65.56;102420.25;5029958;28;50913;-62
2022/04/28 07:00:55;;;;;;;;;47.00;38.50;;;;;11.42;65.34;102418.69;5029343;28;50128;-62
2022/04/28 07:03:21;;;;;;;;;28.50;27.00;;;;;11.35;65.20;102412.25;5030214;28;49837;-61
2022/04/28 07:05:46;;;;;;;;;38.75;35.00;;;;;11.53;65.19;102433.19;5029490;28;49889;-62
2022/04/28 07:08:11;;;;;;;;;52.75;40.75;;;;;11.49;65.17;102406.72;5029262;28;50025;-62
2022/04/28 07:10:38;;;;;;;;;45.75;38.00;;;;;11.64;64.46;102418.75;5029321;28;49670;-62
2022/04/28 07:13:03;;;;;;;;;46.75;38.00;;;;;11.60;64.43;102402.81;5029474;28;49936;-61
2022/04/28 07:15:29;;;;;;;;;52.50;42.75;;;;;11.80;64.09;102424.72;5029825;28;49768;-63
2022/04/28 07:17:54;;;;;;;;;49.25;42.00;;;;;11.93;64.08;102440.19;5029413;28;49773;-63
2022/04/28 07:20:20;;;;;;;;;46.50;39.50;;;;;11.95;63.52;102410.44;5011302;28;49769;-65
2022/04/28 07:22:45;;;;;;;;;44.00;38.00;;;;;12.03;62.89;102416.94;5029374;28;49735;-62
2022/04/28 07:25:10;;;;;;;;;50.00;41.00;;;;;12.19;62.47;102433.38;5029989;28;49776;-62
2022/04/28 07:27:36;;;;;;;;;48.00;38.75;;;;;12.30;62.40;102430.31;5029434;28;49926;-63
2022/04/28 07:30:02;;;;;;;;;51.50;42.50;;;;;12.50;61.38;102438.13;5029513;28;50050;-63
2022/04/28 07:32:28;;;;;;;;;51.75;42.25;;;;;12.57;60.77;102437.53;5029357;28;49957;-63
2022/04/28 07:34:53;;;;;;;;;37.50;35.25;;;;;12.59;60.90;102415.69;5030027;28;49767;-63
2022/04/28 07:37:18;;;;;;;;;58.50;45.25;;;;;12.85;60.46;102440.41;5028555;28;49828;-62
2022/04/28 07:39:44;;;;;;;;;51.25;40.25;;;;;12.80;59.92;102410.31;5028430;28;49926;-63
2022/04/28 07:42:09;;;;;;;;;46.50;39.75;;;;;13.10;59.85;102433.41;5024348;28;49778;-67
2022/04/28 07:44:36;;;;;;;;;40.50;36.25;;;;;13.15;59.66;102419.56;5027980;28;49992;-62
2022/04/28 07:47:01;;;;;;;;;36.00;33.50;;;;;13.37;58.24;102431.81;5029339;28;50732;-64
2022/04/28 07:49:27;;;;;;;;;43.75;37.75;;;;;13.46;58.68;102434.78;5027850;28;49975;-65
2022/04/28 07:51:52;;;;;;;;;49.50;40.50;;;;;13.54;57.36;102429.78;5029684;28;50109;-64
2022/04/28 07:54:17;;;;;;;;;44.00;36.75;;;;;13.55;57.37;102417.47;5029436;28;49766;-66
2022/04/28 07:56:45;;;;;;;;;48.00;37.25;;;;;13.79;56.81;102441.16;5029526;28;49814;-66
2022/04/28 07:59:11;;;;;;;;;44.75;38.50;;;;;13.81;56.52;102442.13;5029448;28;49706;-63
2022/04/28 08:01:37;;;;;;;;;43.75;36.50;;;;;13.86;56.77;102443.19;5029267;28;49783;-63
2022/04/28 08:04:02;;;;;;;;;50.25;39.50;;;;;13.88;55.77;102430.91;5026648;28;49751;-63
2022/04/28 08:06:28;;;;;;;;;51.25;43.25;;;;;13.98;56.47;102420.72;5029237;28;51063;-64
2022/04/28 08:08:53;;;;;;;;;48.25;40.00;;;;;14.18;55.26;102450.41;5029138;28;49738;-63
2022/04/28 08:11:19;;;;;;;;;52.50;40.75;;;;;14.27;55.00;102444.53;5029487;28;50242;-66
2022/04/28 08:13:44;;;;;;;;;46.50;39.25;;;;;14.27;55.19;102426.94;5011461;28;50103;-63
2022/04/28 08:16:09;;;;;;;;;41.25;36.50;;;;;14.43;54.48;102448.59;5029215;28;50550;-68
2022/04/28 08:18:37;;;;;;;;;37.00;33.50;;;;;14.49;54.79;102446.19;5032763;28;49756;-63
2022/04/28 08:21:04;;;;;;;;;39.25;34.25;;;;;14.46;54.40;102422.28;5009542;28;49774;-66
2022/04/28 08:23:29;;;;;;;;;40.75;36.50;;;;;14.60;54.27;102428.91;5032604;28;49124;-68
2022/04/28 08:25:54;;;;;;;;;39.25;35.00;;;;;14.77;54.07;102448.84;5032579;28;50605;-64
2022/04/28 08:28:20;;;;;;;;;43.00;37.25;;;;;14.91;53.55;102445.69;5027154;28;49753;-64
2022/04/28 08:30:46;;;;;;;;;45.00;36.75;;;;;14.97;53.56;102443.25;5032685;28;50066;-64
2022/04/28 08:33:12;;;;;;;;;34.00;31.50;;;;;15.07;53.45;102442.66;5008406;28;49633;-63
2022/04/28 08:35:37;;;;;;;;;46.00;38.25;;;;;15.16;52.90;102442.94;5028950;28;50258;-64
2022/04/28 08:38:03;;;;;;;;;43.50;37.75;;;;;15.18;52.38;102442.09;5030828;28;49820;-65
2022/04/28 08:40:28;;;;;;;;;40.25;35.50;;;;;15.12;53.03;102404.88;5047233;28;49766;-64
2022/04/28 08:42:55;;;;;;;;;40.50;35.75;;;;;15.37;52.71;102424.09;5024389;28;49457;-62
2022/04/28 08:45:27;;;;;;;;;37.00;33.75;;;;;15.70;51.89;102455.91;5030921;28;49848;-62
2022/04/28 08:47:56;;;;;;;;;42.50;37.25;;;;;15.78;51.36;102438.47;5008585;28;49944;-62
2022/04/28 08:50:22;;;;;;;;;39.25;36.00;;;;;15.93;51.24;102444.19;5031894;28;49934;-62
2022/04/28 08:52:48;;;;;;;;;34.25;32.50;;;;;15.97;51.04;102435.44;5025328;28;50116;-63
2022/04/28 08:55:15;;;;;;;;;25.50;22.75;;;;;15.99;50.29;102423.13;5030716;28;49939;-63
2022/04/28 08:57:40;;;;;;;;;40.75;37.25;;;;;16.21;50.82;102443.13;5034584;28;49796;-63
2022/04/28 09:00:06;;;;;;;;;43.50;36.25;;;;;16.26;50.65;102433.50;5031865;28;49580;-62
2022/04/28 09:02:33;;;;;;;;;34.00;32.75;;;;;16.36;49.88;102442.56;5031904;28;49588;-64
2022/04/28 09:05:03;;;;;;;;;37.25;33.25;;;;;16.40;49.88;102412.63;5031942;28;50667;-62
2022/04/28 09:07:34;;;;;;;;;39.50;35.00;;;;;16.59;49.43;102435.16;5031777;28;49777;-63
2022/04/28 09:10:00;;;;;;;;;35.00;32.50;;;;;16.60;49.52;102415.75;5031681;28;49883;-64
2022/04/28 09:12:25;;;;;;;;;38.75;32.75;;;;;16.62;49.42;102407.81;5014306;28;49820;-64
2022/04/28 09:14:55;;;;;;;;;35.00;32.75;;;;;16.78;47.62;102423.22;5031000;28;50671;-64
2022/04/28 09:17:21;;;;;;;;;34.00;31.75;;;;;16.82;47.47;102414.50;5029087;28;49833;-63
2022/04/28 09:19:46;;;;;;;;;40.00;34.50;;;;;16.97;47.38;102417.44;5031904;28;49595;-62
2022/04/28 09:22:13;;;;;;;;;35.00;32.75;;;;;17.03;47.94;102404.31;5031615;28;49925;-65
2022/04/28 09:24:44;;;;;;;;;38.00;32.25;;;;;17.02;47.52;102372.47;5031597;28;50538;-67
2022/04/28 09:27:10;;;;;;;;;37.25;32.50;;;;;17.16;47.31;102382.47;5038070;28;49821;-64
2022/04/28 09:29:39;;;;;;;;;33.50;30.75;;;;;17.29;46.43;102385.38;5031164;28;49575;-64
2022/04/28 09:32:13;;;;;;;;;36.50;31.50;;;;;17.47;45.93;102393.69;5031908;28;49778;-63
2022/04/28 09:35:06;;;;;;;;;26.00;26.00;;;;;17.78;44.85;102419.06;5031234;28;50806;-65
2022/04/28 09:37:32;;;;;;;;;34.50;31.50;;;;;17.80;45.04;102395.16;5029160;28;50259;-64
2022/04/28 09:42:41;;;;;;;;;29.00;28.75;;;;;18.00;44.68;102401.72;5031828;28;49819;-62
2022/04/28 09:45:09;;;;;;;;;31.50;28.00;;;;;18.13;45.05;102402.78;5031290;28;49702;-68
2022/04/28 09:47:36;;;;;;;;;39.25;33.25;;;;;18.21;43.28;102385.19;5013320;28;49772;-64
2022/04/28 09:50:11;;;;;;;;;31.00;29.25;;;;;18.36;43.86;102397.84;5027907;28;49929;-65
2022/04/28 09:52:36;;;;;;;;;25.75;24.25;;;;;18.34;43.57;102387.19;5013570;28;49913;-65
2022/04/28 09:55:03;;;;;;;;;30.75;29.75;;;;;18.56;43.65;102383.06;5007600;28;50882;-66
2022/04/28 09:57:30;;;;;;;;;36.00;30.75;;;;;18.63;42.47;102387.59;5010541;28;49679;-68
2022/04/28 09:59:57;;;;;;;;;26.25;26.25;;;;;18.57;42.09;102377.75;5031666;28;49746;-65
2022/04/28 10:02:25;;;;;;;;;26.25;24.50;;;;;18.58;42.42;102384.84;5031255;28;49908;-64
2022/04/28 10:04:51;;;;;;;;;24.25;24.25;;;;;18.64;42.39;102380.50;5030943;28;50859;-65
2022/04/28 10:07:18;;;;;;;;;28.75;27.00;;;;;18.69;42.84;102384.13;5024560;28;50000;-66
2022/04/28 10:09:45;;;;;;;;;34.00;28.75;;;;;18.62;41.71;102377.81;5013162;28;49789;-65
2022/04/28 10:12:13;;;;;;;;;30.00;28.00;;;;;18.50;41.88;102369.66;5013301;28;49832;-65
2022/04/28 10:14:42;;;;;;;;;20.00;18.50;;;;;18.68;42.29;102382.34;5030688;28;49794;-65
2022/04/28 10:17:15;;;;;;;;;19.50;19.00;;;;;18.74;42.19;102370.03;5030666;28;49712;-64
2022/04/28 10:19:44;;;;;;;;;30.25;29.00;;;;;18.78;42.23;102369.19;5012928;28;49793;-64
2022/04/28 10:22:16;;;;;;;;;33.50;28.25;;;;;18.97;41.94;102378.28;5030670;28;49882;-64
2022/04/28 10:33:15;;;;;;;;;21.75;19.50;;;;;19.57;41.09;102347.00;5025377;28;50082;-65
2022/04/28 10:35:42;;;;;;;;;18.25;18.25;;;;;19.77;39.21;102358.69;5030575;28;51987;-65
2022/04/28 10:38:13;;;;;;;;;16.75;14.25;;;;;19.83;38.29;102347.22;5030427;28;50025;-64
2022/04/28 10:40:40;;;;;;;;;16.25;15.00;;;;;19.76;36.92;102350.69;5028558;28;50008;-65
2022/04/28 10:43:20;;;;;;;;;17.25;17.25;;;;;19.62;37.68;102338.16;5024196;28;49822;-64
2022/04/28 10:45:48;;;;;;;;;16.25;16.25;;;;;19.75;37.55;102335.59;5030750;28;49678;-65
2022/04/28 10:48:42;;;;;;;;;20.75;17.00;;;;;19.74;35.98;102350.69;5030526;28;49750;-69
2022/04/28 10:51:10;;;;;;;;;15.00;12.75;;;;;19.78;35.81;102344.50;5025418;28;49954;-69
2022/04/28 10:53:54;;;;;;;;;11.75;11.25;;;;;19.76;35.31;102343.59;5012490;28;49762;-68
2022/04/28 10:56:19;;;;;;;;;11.25;9.25;;;;;19.89;35.88;102350.81;5030370;28;49784;-69
2022/04/28 10:58:45;;;;;;;;;11.00;11.00;;;;;20.09;35.24;102344.75;5012080;28;49815;-68
2022/04/28 11:01:32;;;;;;;;;10.75;10.75;;;;;20.30;34.65;102340.44;5030466;28;50273;-67
2022/04/28 11:04:03;;;;;;;;;11.75;11.25;;;;;20.51;34.17;102338.78;5030535;28;49634;-66
2022/04/28 11:06:31;;;;;;;;;14.00;13.75;;;;;20.52;34.20;102301.44;5029487;28;49842;-70
2022/04/28 11:09:02;;;;;;;;;13.00;12.75;;;;;20.88;33.21;102352.28;5029107;28;49995;-70
2022/04/28 11:11:41;;;;;;;;;9.00;7.75;;;;;20.65;32.94;102286.34;5027846;28;49916;-70
2022/04/28 11:14:08;;;;;;;;;11.00;10.50;;;;;21.07;31.90;102346.13;5007556;28;49970;-71
2022/04/28 11:16:34;;;;;;;;;14.75;13.75;;;;;21.06;31.60;102334.56;5023353;28;50663;-69
2022/04/28 11:19:00;;;;;;;;;10.75;9.00;;;;;21.17;31.81;102347.91;5028102;28;49899;-68
2022/04/28 11:21:25;;;;;;;;;13.50;13.50;;;;;20.93;31.49;102322.03;5029315;28;49966;-70
2022/04/28 11:23:51;;;;;;;;;13.75;13.00;;;;;20.99;31.85;102351.44;5030027;28;49674;-70
2022/04/28 11:26:19;;;;;;;;;18.00;14.75;;;;;20.93;31.62;102358.50;5030217;28;50956;-69
2022/04/28 11:28:44;;;;;;;;;10.75;9.75;;;;;20.86;31.66;102344.28;5029865;28;49930;-73
2022/04/28 11:31:23;;;;;;;;;12.00;10.75;;;;;20.60;31.26;102301.47;5012235;28;49634;-75
2022/04/28 11:33:50;;;;;;;;;10.50;10.50;;;;;20.85;31.33;102354.06;5027176;28;50203;-76
2022/04/28 11:36:46;;;;;;;;;10.25;10.25;;;;;20.66;31.10;102309.53;5027824;28;49994;-75
2022/04/28 11:39:12;;;;;;;;;14.00;12.50;;;;;20.93;30.71;102354.06;5012008;28;50099;-74